sensor_id;sensor_type;location;lat;lon;timestamp;temperature;humidity
12557;DHT22;6344;49.932;8.308;2023-09-08T00:01:05;16.40;99.90
12557;DHT22;6344;49.932;8.308;2023-09-08T00:03:32;16.30;99.90
12557;DHT22;6344;49.932;8.308;2023-09-08T00:05:58;16.10;99.90
12557;DHT22;6344;49.932;8.308;2023-09-08T00:08:27;16.30;99.90
12557;DHT22;6344;49.932;8.308;2023-09-08T00:10:53;16.30;99.90
12557;DHT22;6344;49.932;8.308;2023-09-08T00:13:20;16.00;99.90
12557;DHT22;6344;49.932;8.308;2023-09-08T00:15:46;15.90;99.90
12557;DHT22;6344;49.932;8.308;2023-09-08T00:18:14;15.80;99.90
12557;DHT22;6344;49.932;8.308;2023-09-08T00:20:41;15.70;99.90
12557;DHT22;6344;49.932;8.308;2023-09-08T00:23:08;15.70;99.90
12557;DHT22;6344;49.932;8.308;2023-09-08T00:25:34;15.60;99.90
12557;DHT22;6344;49.932;8.308;2023-09-08T00:28:01;15.60;99.90
12557;DHT22;6344;49.932;8.308;2023-09-08T00:30:28;15.60;99.90
12557;DHT22;6344;49.932;8.308;2023-09-08T00:32:55;15.50;99.90
12557;DHT22;6344;49.932;8.308;2023-09-08T00:35:23;15.40;99.90
12557;DHT22;6344;49.932;8.308;2023-09-08T00:37:49;15.40;99.90
12557;DHT22;6344;49.932;8.308;2023-09-08T00:40:16;15.90;99.90
12557;DHT22;6344;49.932;8.308;2023-09-08T00:42:43;15.70;99.90
12557;DHT22;6344;49.932;8.308;2023-09-08T00:45:09;15.70;99.90
12557;DHT22;6344;49.932;8.308;2023-09-08T00:47:36;15.60;99.90
12557;DHT22;6344;49.932;8.308;2023-09-08T00:50:03;15.50;99.90
12557;DHT22;6344;49.932;8.308;2023-09-08T00:52:31;15.70;99.90
12557;DHT22;6344;49.932;8.308;2023-09-08T00:54:59;15.80;99.90
12557;DHT22;6344;49.932;8.308;2023-09-08T00:57:25;15.80;99.90
12557;DHT22;6344;49.932;8.308;2023-09-08T00:59:52;16.10;99.90
12557;DHT22;6344;49.932;8.308;2023-09-08T01:02:20;15.70;99.90
12557;DHT22;6344;49.932;8.308;2023-09-08T01:04:46;15.80;99.90
12557;DHT22;6344;49.932;8.308;2023-09-08T01:07:13;15.80;99.90
12557;DHT22;6344;49.932;8.308;2023-09-08T01:15:53;16.20;99.90
12557;DHT22;6344;49.932;8.308;2023-09-08T01:18:20;15.90;99.90
12557;DHT22;6344;49.932;8.308;2023-09-08T01:20:48;15.80;99.90
12557;DHT22;6344;49.932;8.308;2023-09-08T01:23:21;15.90;99.90
12557;DHT22;6344;49.932;8.308;2023-09-08T01:25:50;16.00;99.90
12557;DHT22;6344;49.932;8.308;2023-09-08T01:28:17;15.70;99.90
12557;DHT22;6344;49.932;8.308;2023-09-08T01:30:45;15.80;99.90
12557;DHT22;6344;49.932;8.308;2023-09-08T01:33:11;15.80;99.90
12557;DHT22;6344;49.932;8.308;2023-09-08T01:35:38;15.90;99.90
12557;DHT22;6344;49.932;8.308;2023-09-08T01:38:04;15.80;99.90
12557;DHT22;6344;49.932;8.308;2023-09-08T01:40:31;16.10;99.90
12557;DHT22;6344;49.932;8.308;2023-09-08T01:42:59;15.90;99.90
12557;DHT22;6344;49.932;8.308;2023-09-08T01:45:25;15.70;99.90
12557;DHT22;6344;49.932;8.308;2023-09-08T01:47:52;16.00;99.90
12557;DHT22;6344;49.932;8.308;2023-09-08T01:50:18;16.10;99.90
12557;DHT22;6344;49.932;8.308;2023-09-08T01:52:48;16.40;99.90
12557;DHT22;6344;49.932;8.308;2023-09-08T01:55:14;16.40;99.90
12557;DHT22;6344;49.932;8.308;2023-09-08T01:57:41;16.40;99.90
12557;DHT22;6344;49.932;8.308;2023-09-08T02:00:10;16.30;99.90
12557;DHT22;6344;49.932;8.308;2023-09-08T02:02:37;16.20;99.90
12557;DHT22;6344;49.932;8.308;2023-09-08T02:05:03;15.90;99.90
12557;DHT22;6344;49.932;8.308;2023-09-08T02:07:30;16.20;99.90
12557;DHT22;6344;49.932;8.308;2023-09-08T02:09:56;15.90;99.90
12557;DHT22;6344;49.932;8.308;2023-09-08T02:12:23;16.00;99.90
12557;DHT22;6344;49.932;8.308;2023-09-08T02:14:49;15.70;99.90
12557;DHT22;6344;49.932;8.308;2023-09-08T02:17:18;15.40;99.90
12557;DHT22;6344;49.932;8.308;2023-09-08T02:19:45;16.10;99.90
12557;DHT22;6344;49.932;8.308;2023-09-08T02:22:11;16.20;99.90
12557;DHT22;6344;49.932;8.308;2023-09-08T02:24:38;16.30;99.90
12557;DHT22;6344;49.932;8.308;2023-09-08T02:27:04;16.30;99.90
12557;DHT22;6344;49.932;8.308;2023-09-08T02:29:31;16.20;99.90
12557;DHT22;6344;49.932;8.308;2023-09-08T02:31:57;16.40;99.90
12557;DHT22;6344;49.932;8.308;2023-09-08T02:34:25;16.20;99.90
12557;DHT22;6344;49.932;8.308;2023-09-08T02:36:52;16.00;99.90
12557;DHT22;6344;49.932;8.308;2023-09-08T02:39:18;15.60;99.90
12557;DHT22;6344;49.932;8.308;2023-09-08T02:41:45;15.60;99.90
12557;DHT22;6344;49.932;8.308;2023-09-08T02:44:11;15.60;99.90
12557;DHT22;6344;49.932;8.308;2023-09-08T02:46:38;15.30;99.90
12557;DHT22;6344;49.932;8.308;2023-09-08T02:49:05;15.30;99.90
12557;DHT22;6344;49.932;8.308;2023-09-08T02:51:33;15.20;99.90
12557;DHT22;6344;49.932;8.308;2023-09-08T02:54:00;15.20;99.90
12557;DHT22;6344;49.932;8.308;2023-09-08T02:56:26;15.00;99.90
12557;DHT22;6344;49.932;8.308;2023-09-08T02:58:53;15.00;99.90
12557;DHT22;6344;49.932;8.308;2023-09-08T03:01:19;15.20;99.90
12557;DHT22;6344;49.932;8.308;2023-09-08T03:03:46;15.20;99.90
12557;DHT22;6344;49.932;8.308;2023-09-08T03:06:13;15.10;99.90
12557;DHT22;6344;49.932;8.308;2023-09-08T03:08:41;15.40;99.90
12557;DHT22;6344;49.932;8.308;2023-09-08T03:11:08;15.50;99.90
12557;DHT22;6344;49.932;8.308;2023-09-08T03:13:34;15.20;99.90
12557;DHT22;6344;49.932;8.308;2023-09-08T03:16:02;15.10;99.90
12557;DHT22;6344;49.932;8.308;2023-09-08T03:18:29;14.90;99.90
12557;DHT22;6344;49.932;8.308;2023-09-08T03:20:58;14.80;99.90
12557;DHT22;6344;49.932;8.308;2023-09-08T03:23:24;14.80;99.90
12557;DHT22;6344;49.932;8.308;2023-09-08T03:25:52;14.80;99.90
12557;DHT22;6344;49.932;8.308;2023-09-08T03:28:19;15.20;99.90
12557;DHT22;6344;49.932;8.308;2023-09-08T03:30:45;14.90;99.90
12557;DHT22;6344;49.932;8.308;2023-09-08T03:33:12;15.20;99.90
12557;DHT22;6344;49.932;8.308;2023-09-08T03:35:38;14.90;99.90
12557;DHT22;6344;49.932;8.308;2023-09-08T03:38:05;14.80;99.90
12557;DHT22;6344;49.932;8.308;2023-09-08T03:40:31;14.90;99.90
12557;DHT22;6344;49.932;8.308;2023-09-08T03:42:59;14.60;99.90
12557;DHT22;6344;49.932;8.308;2023-09-08T03:45:26;14.60;99.90
12557;DHT22;6344;49.932;8.308;2023-09-08T03:47:52;14.50;99.90
12557;DHT22;6344;49.932;8.308;2023-09-08T03:50:19;14.50;99.90
12557;DHT22;6344;49.932;8.308;2023-09-08T03:52:45;14.60;99.90
12557;DHT22;6344;49.932;8.308;2023-09-08T03:55:12;14.60;99.90
12557;DHT22;6344;49.932;8.308;2023-09-08T03:57:38;14.40;99.90
12557;DHT22;6344;49.932;8.308;2023-09-08T04:00:07;14.20;99.90
12557;DHT22;6344;49.932;8.308;2023-09-08T04:02:35;14.20;99.90
12557;DHT22;6344;49.932;8.308;2023-09-08T04:05:02;14.20;99.90
12557;DHT22;6344;49.932;8.308;2023-09-08T04:07:29;14.00;99.90
12557;DHT22;6344;49.932;8.308;2023-09-08T04:09:55;14.00;99.90
12557;DHT22;6344;49.932;8.308;2023-09-08T04:12:22;14.00;99.90
12557;DHT22;6344;49.932;8.308;2023-09-08T04:14:48;14.00;99.90
12557;DHT22;6344;49.932;8.308;2023-09-08T04:17:16;13.90;99.90
12557;DHT22;6344;49.932;8.308;2023-09-08T04:19:43;13.80;99.90
12557;DHT22;6344;49.932;8.308;2023-09-08T04:22:09;13.80;99.90
12557;DHT22;6344;49.932;8.308;2023-09-08T04:24:36;13.80;99.90
12557;DHT22;6344;49.932;8.308;2023-09-08T04:27:03;13.80;99.90
12557;DHT22;6344;49.932;8.308;2023-09-08T04:29:29;13.80;99.90
12557;DHT22;6344;49.932;8.308;2023-09-08T04:31:56;13.80;99.90
12557;DHT22;6344;49.932;8.308;2023-09-08T04:34:24;14.00;99.90
12557;DHT22;6344;49.932;8.308;2023-09-08T04:36:50;14.00;99.90
12557;DHT22;6344;49.932;8.308;2023-09-08T04:39:17;14.10;99.90
12557;DHT22;6344;49.932;8.308;2023-09-08T04:41:43;14.10;99.90
12557;DHT22;6344;49.932;8.308;2023-09-08T04:44:10;14.00;99.90
12557;DHT22;6344;49.932;8.308;2023-09-08T04:46:36;14.10;99.90
12557;DHT22;6344;49.932;8.308;2023-09-08T04:49:03;14.10;99.90
12557;DHT22;6344;49.932;8.308;2023-09-08T04:51:31;14.10;99.90
12557;DHT22;6344;49.932;8.308;2023-09-08T04:53:57;14.00;99.90
12557;DHT22;6344;49.932;8.308;2023-09-08T04:56:24;14.10;99.90
12557;DHT22;6344;49.932;8.308;2023-09-08T04:58:50;14.00;99.90
12557;DHT22;6344;49.932;8.308;2023-09-08T05:01:17;13.90;99.90
12557;DHT22;6344;49.932;8.308;2023-09-08T05:03:44;13.90;99.90
12557;DHT22;6344;49.932;8.308;2023-09-08T05:06:11;13.90;99.90
12557;DHT22;6344;49.932;8.308;2023-09-08T05:08:40;14.30;99.90
12557;DHT22;6344;49.932;8.308;2023-09-08T05:11:06;14.10;99.90
12557;DHT22;6344;49.932;8.308;2023-09-08T05:13:33;14.00;99.90
12557;DHT22;6344;49.932;8.308;2023-09-08T05:15:59;14.00;99.90
12557;DHT22;6344;49.932;8.308;2023-09-08T05:18:36;14.00;99.90
12557;DHT22;6344;49.932;8.308;2023-09-08T05:21:02;14.30;99.90
12557;DHT22;6344;49.932;8.308;2023-09-08T05:23:29;14.30;99.90
12557;DHT22;6344;49.932;8.308;2023-09-08T05:25:57;14.40;99.90
12557;DHT22;6344;49.932;8.308;2023-09-08T05:28:23;14.50;99.90
12557;DHT22;6344;49.932;8.308;2023-09-08T05:30:50;14.60;99.90
12557;DHT22;6344;49.932;8.308;2023-09-08T05:33:16;14.80;99.90
12557;DHT22;6344;49.932;8.308;2023-09-08T05:35:44;14.90;99.90
12557;DHT22;6344;49.932;8.308;2023-09-08T05:38:11;15.00;99.90
12557;DHT22;6344;49.932;8.308;2023-09-08T05:40:38;15.40;99.90
12557;DHT22;6344;49.932;8.308;2023-09-08T05:43:06;15.60;99.90
12557;DHT22;6344;49.932;8.308;2023-09-08T05:45:32;15.90;99.90
12557;DHT22;6344;49.932;8.308;2023-09-08T05:47:59;15.90;99.90
12557;DHT22;6344;49.932;8.308;2023-09-08T05:50:26;16.30;99.90
12557;DHT22;6344;49.932;8.308;2023-09-08T05:52:52;16.50;99.90
12557;DHT22;6344;49.932;8.308;2023-09-08T05:55:19;16.60;99.90
12557;DHT22;6344;49.932;8.308;2023-09-08T05:57:46;16.70;99.90
12557;DHT22;6344;49.932;8.308;2023-09-08T06:00:14;16.90;99.90
12557;DHT22;6344;49.932;8.308;2023-09-08T06:02:41;16.90;99.90
12557;DHT22;6344;49.932;8.308;2023-09-08T06:05:07;17.10;99.90
12557;DHT22;6344;49.932;8.308;2023-09-08T06:07:34;17.20;99.90
12557;DHT22;6344;49.932;8.308;2023-09-08T06:10:00;17.30;99.90
12557;DHT22;6344;49.932;8.308;2023-09-08T06:12:27;17.40;99.90
12557;DHT22;6344;49.932;8.308;2023-09-08T06:14:53;17.50;99.90
12557;DHT22;6344;49.932;8.308;2023-09-08T06:17:21;17.70;99.90
12557;DHT22;6344;49.932;8.308;2023-09-08T06:19:48;17.90;99.90
12557;DHT22;6344;49.932;8.308;2023-09-08T06:22:14;18.20;99.90
12557;DHT22;6344;49.932;8.308;2023-09-08T06:24:41;18.40;99.90
12557;DHT22;6344;49.932;8.308;2023-09-08T06:27:07;18.60;99.90
12557;DHT22;6344;49.932;8.308;2023-09-08T06:29:34;18.80;99.90
12557;DHT22;6344;49.932;8.308;2023-09-08T06:32:00;19.00;99.90
12557;DHT22;6344;49.932;8.308;2023-09-08T06:34:28;19.20;99.90
12557;DHT22;6344;49.932;8.308;2023-09-08T06:36:55;19.20;99.90
12557;DHT22;6344;49.932;8.308;2023-09-08T06:41:48;19.50;99.90
12557;DHT22;6344;49.932;8.308;2023-09-08T06:44:15;19.70;99.90
12557;DHT22;6344;49.932;8.308;2023-09-08T06:46:41;19.70;99.90
12557;DHT22;6344;49.932;8.308;2023-09-08T06:49:08;19.70;99.90
12557;DHT22;6344;49.932;8.308;2023-09-08T06:51:36;19.80;99.90
12557;DHT22;6344;49.932;8.308;2023-09-08T06:54:04;20.00;99.90
12557;DHT22;6344;49.932;8.308;2023-09-08T06:56:30;20.30;99.90
12557;DHT22;6344;49.932;8.308;2023-09-08T06:58:57;20.40;99.90
12557;DHT22;6344;49.932;8.308;2023-09-08T07:01:24;20.40;99.90
12557;DHT22;6344;49.932;8.308;2023-09-08T07:03:50;20.50;99.90
12557;DHT22;6344;49.932;8.308;2023-09-08T07:06:17;20.50;99.90
12557;DHT22;6344;49.932;8.308;2023-09-08T07:08:44;20.20;99.90
12557;DHT22;6344;49.932;8.308;2023-09-08T07:11:11;20.80;99.90
12557;DHT22;6344;49.932;8.308;2023-09-08T07:13:37;20.90;99.90
12557;DHT22;6344;49.932;8.308;2023-09-08T07:16:04;20.80;99.90
12557;DHT22;6344;49.932;8.308;2023-09-08T07:18:31;20.90;99.90
12557;DHT22;6344;49.932;8.308;2023-09-08T07:21:01;21.00;99.90
12557;DHT22;6344;49.932;8.308;2023-09-08T07:23:27;21.50;99.90
12557;DHT22;6344;49.932;8.308;2023-09-08T07:25:55;21.60;99.90
12557;DHT22;6344;49.932;8.308;2023-09-08T07:28:22;21.70;99.90
12557;DHT22;6344;49.932;8.308;2023-09-08T07:30:48;21.40;99.90
12557;DHT22;6344;49.932;8.308;2023-09-08T07:33:15;22.20;99.90
12557;DHT22;6344;49.932;8.308;2023-09-08T07:35:42;22.40;99.90
12557;DHT22;6344;49.932;8.308;2023-09-08T07:38:08;22.30;99.90
12557;DHT22;6344;49.932;8.308;2023-09-08T07:40:35;22.10;99.90
12557;DHT22;6344;49.932;8.308;2023-09-08T07:43:03;22.60;99.90
12557;DHT22;6344;49.932;8.308;2023-09-08T07:45:30;22.70;99.90
12557;DHT22;6344;49.932;8.308;2023-09-08T07:47:56;22.80;99.90
12557;DHT22;6344;49.932;8.308;2023-09-08T07:50:23;22.60;99.90
12557;DHT22;6344;49.932;8.308;2023-09-08T07:52:50;22.90;99.90
12557;DHT22;6344;49.932;8.308;2023-09-08T07:55:17;22.80;99.90
12557;DHT22;6344;49.932;8.308;2023-09-08T07:57:45;22.60;99.90
12557;DHT22;6344;49.932;8.308;2023-09-08T08:00:14;23.20;99.90
12557;DHT22;6344;49.932;8.308;2023-09-08T08:02:41;23.00;99.90
12557;DHT22;6344;49.932;8.308;2023-09-08T08:05:08;23.30;99.90
12557;DHT22;6344;49.932;8.308;2023-09-08T08:07:35;23.40;99.90
12557;DHT22;6344;49.932;8.308;2023-09-08T08:10:01;23.10;99.90
12557;DHT22;6344;49.932;8.308;2023-09-08T08:12:28;23.20;99.90
12557;DHT22;6344;49.932;8.308;2023-09-08T08:14:55;23.40;99.90
12557;DHT22;6344;49.932;8.308;2023-09-08T08:17:22;23.80;99.90
12557;DHT22;6344;49.932;8.308;2023-09-08T08:19:49;24.70;99.90
12557;DHT22;6344;49.932;8.308;2023-09-08T08:22:16;24.00;99.90
12557;DHT22;6344;49.932;8.308;2023-09-08T08:24:43;24.20;99.90
12557;DHT22;6344;49.932;8.308;2023-09-08T08:27:10;25.00;99.90
12557;DHT22;6344;49.932;8.308;2023-09-08T08:29:36;25.30;99.90
12557;DHT22;6344;49.932;8.308;2023-09-08T08:32:03;25.70;99.90
12557;DHT22;6344;49.932;8.308;2023-09-08T08:34:31;26.10;99.90
12557;DHT22;6344;49.932;8.308;2023-09-08T08:36:58;25.70;99.90
12557;DHT22;6344;49.932;8.308;2023-09-08T08:39:24;24.60;99.90
12557;DHT22;6344;49.932;8.308;2023-09-08T08:44:17;25.00;99.90
12557;DHT22;6344;49.932;8.308;2023-09-08T08:46:45;25.50;99.90
12557;DHT22;6344;49.932;8.308;2023-09-08T08:49:12;25.80;99.90
12557;DHT22;6344;49.932;8.308;2023-09-08T08:51:43;26.30;99.90
12557;DHT22;6344;49.932;8.308;2023-09-08T08:56:37;26.10;99.90
12557;DHT22;6344;49.932;8.308;2023-09-08T08:59:03;25.30;99.90
12557;DHT22;6344;49.932;8.308;2023-09-08T09:01:30;26.40;99.90
12557;DHT22;6344;49.932;8.308;2023-09-08T09:03:57;25.60;99.90
12557;DHT22;6344;49.932;8.308;2023-09-08T09:06:24;25.20;99.90
12557;DHT22;6344;49.932;8.308;2023-09-08T09:08:52;26.40;99.90
12557;DHT22;6344;49.932;8.308;2023-09-08T09:11:18;26.80;99.90
12557;DHT22;6344;49.932;8.308;2023-09-08T09:13:45;27.00;99.90
12557;DHT22;6344;49.932;8.308;2023-09-08T09:16:11;26.90;99.90
12557;DHT22;6344;49.932;8.308;2023-09-08T09:18:53;27.40;99.90
12557;DHT22;6344;49.932;8.308;2023-09-08T09:21:20;27.80;99.90
12557;DHT22;6344;49.932;8.308;2023-09-08T09:23:47;27.40;99.90
12557;DHT22;6344;49.932;8.308;2023-09-08T09:26:22;27.30;99.90
12557;DHT22;6344;49.932;8.308;2023-09-08T09:28:49;27.30;99.90
12557;DHT22;6344;49.932;8.308;2023-09-08T09:31:17;28.30;99.90
12557;DHT22;6344;49.932;8.308;2023-09-08T09:33:44;28.00;99.90
12557;DHT22;6344;49.932;8.308;2023-09-08T09:36:11;28.00;99.90
12557;DHT22;6344;49.932;8.308;2023-09-08T09:38:46;28.30;99.90
12557;DHT22;6344;49.932;8.308;2023-09-08T09:41:13;29.60;99.90
12557;DHT22;6344;49.932;8.308;2023-09-08T09:43:40;29.40;99.90
12557;DHT22;6344;49.932;8.308;2023-09-08T09:46:09;29.80;99.90
12557;DHT22;6344;49.932;8.308;2023-09-08T09:48:36;29.00;99.90
12557;DHT22;6344;49.932;8.308;2023-09-08T09:51:14;29.40;99.90
12557;DHT22;6344;49.932;8.308;2023-09-08T09:53:41;29.20;99.90
12557;DHT22;6344;49.932;8.308;2023-09-08T09:56:09;28.80;99.90
12557;DHT22;6344;49.932;8.308;2023-09-08T09:58:36;28.80;99.90
12557;DHT22;6344;49.932;8.308;2023-09-08T10:01:05;29.80;99.90
12557;DHT22;6344;49.932;8.308;2023-09-08T10:03:31;29.70;99.90
12557;DHT22;6344;49.932;8.308;2023-09-08T10:05:59;29.30;99.90
12557;DHT22;6344;49.932;8.308;2023-09-08T10:08:25;29.80;99.90
12557;DHT22;6344;49.932;8.308;2023-09-08T10:10:53;29.40;99.90
12557;DHT22;6344;49.932;8.308;2023-09-08T10:13:22;29.10;99.90
12557;DHT22;6344;49.932;8.308;2023-09-08T10:15:49;28.70;99.90
12557;DHT22;6344;49.932;8.308;2023-09-08T10:18:18;28.40;99.90
12557;DHT22;6344;49.932;8.308;2023-09-08T10:20:45;29.20;99.90
12557;DHT22;6344;49.932;8.308;2023-09-08T10:23:15;29.80;99.90
12557;DHT22;6344;49.932;8.308;2023-09-08T10:25:45;29.70;99.90
12557;DHT22;6344;49.932;8.308;2023-09-08T10:28:18;30.90;99.90
12557;DHT22;6344;49.932;8.308;2023-09-08T10:30:45;29.30;99.90
12557;DHT22;6344;49.932;8.308;2023-09-08T10:33:12;29.30;99.90
12557;DHT22;6344;49.932;8.308;2023-09-08T10:35:40;30.30;99.90
12557;DHT22;6344;49.932;8.308;2023-09-08T10:38:21;29.80;99.90
12557;DHT22;6344;49.932;8.308;2023-09-08T10:40:47;28.80;99.90
12557;DHT22;6344;49.932;8.308;2023-09-08T10:43:14;30.10;99.90
12557;DHT22;6344;49.932;8.308;2023-09-08T10:45:40;30.80;99.90
12557;DHT22;6344;49.932;8.308;2023-09-08T10:48:07;29.20;99.90
12557;DHT22;6344;49.932;8.308;2023-09-08T10:50:39;30.70;99.90
12557;DHT22;6344;49.932;8.308;2023-09-08T10:53:08;30.00;99.90
12557;DHT22;6344;49.932;8.308;2023-09-08T10:55:37;30.90;99.90
12557;DHT22;6344;49.932;8.308;2023-09-08T10:58:06;30.70;99.90
12557;DHT22;6344;49.932;8.308;2023-09-08T11:00:42;30.30;99.90
12557;DHT22;6344;49.932;8.308;2023-09-08T11:03:09;30.50;99.90
12557;DHT22;6344;49.932;8.308;2023-09-08T11:05:36;30.10;99.90
12557;DHT22;6344;49.932;8.308;2023-09-08T11:08:02;31.20;99.90
12557;DHT22;6344;49.932;8.308;2023-09-08T11:10:30;31.80;99.90
12557;DHT22;6344;49.932;8.308;2023-09-08T11:12:58;31.80;99.90
12557;DHT22;6344;49.932;8.308;2023-09-08T11:15:27;31.10;99.90
12557;DHT22;6344;49.932;8.308;2023-09-08T11:17:54;31.90;99.90
12557;DHT22;6344;49.932;8.308;2023-09-08T11:20:26;30.70;99.90
12557;DHT22;6344;49.932;8.308;2023-09-08T11:22:52;30.10;99.90
12557;DHT22;6344;49.932;8.308;2023-09-08T11:25:19;29.60;99.90
12557;DHT22;6344;49.932;8.308;2023-09-08T11:27:47;31.30;99.90
12557;DHT22;6344;49.932;8.308;2023-09-08T11:30:15;30.40;99.90
12557;DHT22;6344;49.932;8.308;2023-09-08T11:32:42;30.70;99.90
12557;DHT22;6344;49.932;8.308;2023-09-08T11:37:36;32.10;99.90
12557;DHT22;6344;49.932;8.308;2023-09-08T11:42:34;31.10;99.90
12557;DHT22;6344;49.932;8.308;2023-09-08T11:45:02;29.80;99.90
12557;DHT22;6344;49.932;8.308;2023-09-08T11:47:29;29.50;99.90
12557;DHT22;6344;49.932;8.308;2023-09-08T11:49:56;31.10;99.90
12557;DHT22;6344;49.932;8.308;2023-09-08T11:52:23;32.20;99.90
12557;DHT22;6344;49.932;8.308;2023-09-08T11:54:50;32.60;99.90
12557;DHT22;6344;49.932;8.308;2023-09-08T11:57:17;31.40;99.90
12557;DHT22;6344;49.932;8.308;2023-09-08T12:02:14;32.50;99.90
12557;DHT22;6344;49.932;8.308;2023-09-08T12:04:42;32.00;99.90
12557;DHT22;6344;49.932;8.308;2023-09-08T12:07:11;31.40;99.90
12557;DHT22;6344;49.932;8.308;2023-09-08T12:09:40;31.80;99.90
12557;DHT22;6344;49.932;8.308;2023-09-08T12:14:39;31.10;99.90
12557;DHT22;6344;49.932;8.308;2023-09-08T12:17:06;31.20;99.90
12557;DHT22;6344;49.932;8.308;2023-09-08T12:19:34;32.20;99.90
12557;DHT22;6344;49.932;8.308;2023-09-08T12:22:02;32.90;99.90
12557;DHT22;6344;49.932;8.308;2023-09-08T12:24:56;32.00;99.90
12557;DHT22;6344;49.932;8.308;2023-09-08T12:27:23;31.10;99.90
12557;DHT22;6344;49.932;8.308;2023-09-08T12:29:53;31.80;99.90
12557;DHT22;6344;49.932;8.308;2023-09-08T12:32:20;33.10;99.90
12557;DHT22;6344;49.932;8.308;2023-09-08T12:34:47;31.60;99.90
12557;DHT22;6344;49.932;8.308;2023-09-08T12:37:13;31.20;99.90
12557;DHT22;6344;49.932;8.308;2023-09-08T12:39:40;32.40;99.90
12557;DHT22;6344;49.932;8.308;2023-09-08T12:42:06;31.50;99.90
12557;DHT22;6344;49.932;8.308;2023-09-08T12:44:33;31.30;99.90
12557;DHT22;6344;49.932;8.308;2023-09-08T12:49:26;31.60;99.90
12557;DHT22;6344;49.932;8.308;2023-09-08T12:51:54;31.20;99.90
12557;DHT22;6344;49.932;8.308;2023-09-08T12:56:48;32.30;99.90
12557;DHT22;6344;49.932;8.308;2023-09-08T12:59:16;33.10;99.90
12557;DHT22;6344;49.932;8.308;2023-09-08T13:01:42;32.30;99.90
12557;DHT22;6344;49.932;8.308;2023-09-08T13:04:09;32.90;99.90
12557;DHT22;6344;49.932;8.308;2023-09-08T13:06:35;32.50;99.90
12557;DHT22;6344;49.932;8.308;2023-09-08T13:09:03;33.80;99.90
12557;DHT22;6344;49.932;8.308;2023-09-08T13:11:30;33.70;99.90
12557;DHT22;6344;49.932;8.308;2023-09-08T13:13:57;34.10;99.90
12557;DHT22;6344;49.932;8.308;2023-09-08T13:16:23;34.80;99.90
12557;DHT22;6344;49.932;8.308;2023-09-08T13:18:50;34.10;99.90
12557;DHT22;6344;49.932;8.308;2023-09-08T13:21:16;33.30;99.90
12557;DHT22;6344;49.932;8.308;2023-09-08T13:23:43;33.30;99.90
12557;DHT22;6344;49.932;8.308;2023-09-08T13:26:11;33.70;99.90
12557;DHT22;6344;49.932;8.308;2023-09-08T13:28:37;34.00;99.90
12557;DHT22;6344;49.932;8.308;2023-09-08T13:31:04;34.30;99.90
12557;DHT22;6344;49.932;8.308;2023-09-08T13:33:30;34.70;99.90
12557;DHT22;6344;49.932;8.308;2023-09-08T13:35:57;32.90;99.90
12557;DHT22;6344;49.932;8.308;2023-09-08T13:38:23;34.10;99.90
12557;DHT22;6344;49.932;8.308;2023-09-08T13:40:50;35.00;99.90
12557;DHT22;6344;49.932;8.308;2023-09-08T13:43:19;33.80;99.90
12557;DHT22;6344;49.932;8.308;2023-09-08T13:45:46;34.00;99.90
12557;DHT22;6344;49.932;8.308;2023-09-08T13:48:13;33.70;99.90
12557;DHT22;6344;49.932;8.308;2023-09-08T13:53:06;33.40;99.90
12557;DHT22;6344;49.932;8.308;2023-09-08T13:55:33;32.90;99.90
12557;DHT22;6344;49.932;8.308;2023-09-08T13:57:59;32.70;99.90
12557;DHT22;6344;49.932;8.308;2023-09-08T14:00:27;32.60;99.90
12557;DHT22;6344;49.932;8.308;2023-09-08T14:02:54;32.30;99.90
12557;DHT22;6344;49.932;8.308;2023-09-08T14:05:20;31.90;99.90
12557;DHT22;6344;49.932;8.308;2023-09-08T14:07:47;32.60;99.90
12557;DHT22;6344;49.932;8.308;2023-09-08T14:10:13;33.00;99.90
12557;DHT22;6344;49.932;8.308;2023-09-08T14:12:40;34.20;99.90
12557;DHT22;6344;49.932;8.308;2023-09-08T14:15:07;32.70;99.90
12557;DHT22;6344;49.932;8.308;2023-09-08T14:17:35;32.00;99.90
12557;DHT22;6344;49.932;8.308;2023-09-08T14:20:01;32.10;99.90
12557;DHT22;6344;49.932;8.308;2023-09-08T14:22:28;33.30;99.90
12557;DHT22;6344;49.932;8.308;2023-09-08T14:24:55;33.50;99.90
12557;DHT22;6344;49.932;8.308;2023-09-08T14:27:22;33.40;99.90
12557;DHT22;6344;49.932;8.308;2023-09-08T14:29:48;33.20;99.90
12557;DHT22;6344;49.932;8.308;2023-09-08T14:32:15;32.10;99.90
12557;DHT22;6344;49.932;8.308;2023-09-08T14:34:42;32.20;99.90
12557;DHT22;6344;49.932;8.308;2023-09-08T14:37:09;32.10;99.90
12557;DHT22;6344;49.932;8.308;2023-09-08T14:39:35;33.00;99.90
12557;DHT22;6344;49.932;8.308;2023-09-08T14:42:02;31.20;99.90
12557;DHT22;6344;49.932;8.308;2023-09-08T14:44:30;31.40;99.90
12557;DHT22;6344;49.932;8.308;2023-09-08T14:46:56;31.20;99.90
12557;DHT22;6344;49.932;8.308;2023-09-08T14:49:23;31.10;99.90
12557;DHT22;6344;49.932;8.308;2023-09-08T14:51:51;31.70;99.90
12557;DHT22;6344;49.932;8.308;2023-09-08T14:54:17;32.30;99.90
12557;DHT22;6344;49.932;8.308;2023-09-08T14:56:44;32.70;99.90
12557;DHT22;6344;49.932;8.308;2023-09-08T14:59:10;32.40;99.90
12557;DHT22;6344;49.932;8.308;2023-09-08T15:01:37;32.80;99.90
12557;DHT22;6344;49.932;8.308;2023-09-08T15:04:05;33.60;99.90
12557;DHT22;6344;49.932;8.308;2023-09-08T15:06:32;33.20;99.90
12557;DHT22;6344;49.932;8.308;2023-09-08T15:09:00;33.40;99.90
12557;DHT22;6344;49.932;8.308;2023-09-08T15:11:27;33.50;99.90
12557;DHT22;6344;49.932;8.308;2023-09-08T15:13:53;33.30;99.90
12557;DHT22;6344;49.932;8.308;2023-09-08T15:16:20;32.00;99.90
12557;DHT22;6344;49.932;8.308;2023-09-08T15:18:46;33.10;99.90
12557;DHT22;6344;49.932;8.308;2023-09-08T15:21:13;33.50;99.90
12557;DHT22;6344;49.932;8.308;2023-09-08T15:26:08;32.70;99.90
12557;DHT22;6344;49.932;8.308;2023-09-08T15:28:34;32.90;99.90
12557;DHT22;6344;49.932;8.308;2023-09-08T15:31:03;33.30;99.90
12557;DHT22;6344;49.932;8.308;2023-09-08T15:33:29;33.30;99.90
12557;DHT22;6344;49.932;8.308;2023-09-08T15:35:56;33.40;99.90
12557;DHT22;6344;49.932;8.308;2023-09-08T15:38:22;33.50;99.90
12557;DHT22;6344;49.932;8.308;2023-09-08T15:43:40;32.10;99.90
12557;DHT22;6344;49.932;8.308;2023-09-08T15:46:07;32.40;99.90
12557;DHT22;6344;49.932;8.308;2023-09-08T15:48:34;31.90;99.90
12557;DHT22;6344;49.932;8.308;2023-09-08T15:51:00;32.20;99.90
12557;DHT22;6344;49.932;8.308;2023-09-08T15:53:27;32.60;99.90
12557;DHT22;6344;49.932;8.308;2023-09-08T15:55:54;32.30;99.90
12557;DHT22;6344;49.932;8.308;2023-09-08T15:58:21;32.70;99.90
12557;DHT22;6344;49.932;8.308;2023-09-08T16:00:49;32.30;99.90
12557;DHT22;6344;49.932;8.308;2023-09-08T16:03:15;33.10;99.90
12557;DHT22;6344;49.932;8.308;2023-09-08T16:05:42;33.00;99.90
12557;DHT22;6344;49.932;8.308;2023-09-08T16:08:08;32.80;99.90
12557;DHT22;6344;49.932;8.308;2023-09-08T16:10:35;32.10;99.90
12557;DHT22;6344;49.932;8.308;2023-09-08T16:13:01;32.40;99.90
12557;DHT22;6344;49.932;8.308;2023-09-08T16:15:28;31.80;99.90
12557;DHT22;6344;49.932;8.308;2023-09-08T16:17:56;31.30;99.90
12557;DHT22;6344;49.932;8.308;2023-09-08T16:20:24;31.10;99.90